Time;durP1;ratioP1;P1;durP2;ratioP2;P2;SDS_P1;SDS_P2;PMS_P1;PMS_P2;Temp;Humidity;BMP_temperature;BMP_pressure;BME280_temperature;BME280_humidity;BME280_pressure;Samples;Min_cycle;Max_cycle;Signal;HPM_P1;HPM_P2
2022/10/14 00:01:32;;;;;;;13.00;5.72;;;;;;;;;;5058335;28;19916;-67
2022/10/14 00:03:58;;;;;;;;;;;;;;;;;;5060095;28;20020;-67
2022/10/14 00:06:25;;;;;;;10.30;4.78;;;;;;;;;;5063278;28;19916;-67
2022/10/14 00:08:52;;;;;;;11.30;4.80;;;;;;;;;;5054296;28;20032;-67
2022/10/14 00:11:23;;;;;;;11.95;5.07;;;;;;;;;;5059298;28;20039;-68
2022/10/14 00:13:49;;;;;;;13.02;4.88;;;;;;;;;;5051516;28;20337;-66
2022/10/14 00:16:20;;;;;;;11.07;4.43;;;;;;;;;;5058621;28;20082;-67
2022/10/14 00:18:46;;;;;;;10.25;4.93;;;;;;;;;;5058552;28;20034;-67
2022/10/14 00:21:12;;;;;;;;;;;;;;;;;;5059985;28;20131;-68
2022/10/14 00:23:38;;;;;;;12.13;5.28;;;;;;;;;;5058108;28;20383;-67
2022/10/14 00:26:04;;;;;;;;;;;;;;;;;;5058256;28;20820;-66
2022/10/14 00:28:30;;;;;;;10.65;5.15;;;;;;;;;;5058154;28;20003;-68
2022/10/14 00:30:58;;;;;;;15.38;5.75;;;;;;;;;;5058986;28;20130;-67
2022/10/14 00:33:24;;;;;;;11.30;5.07;;;;;;;;;;5059601;28;20070;-67
2022/10/14 00:35:54;;;;;;;12.82;4.60;;;;;;;;;;5060558;28;20036;-68
2022/10/14 00:38:20;;;;;;;12.57;5.22;;;;;;;;;;5066248;28;20036;-66
2022/10/14 00:40:46;;;;;;;;;;;;;;;;;;5056616;28;20421;-67
2022/10/14 00:43:13;;;;;;;12.25;4.38;;;;;;;;;;5059936;28;19958;-66
2022/10/14 00:45:39;;;;;;;10.45;4.60;;;;;;;;;;5055075;28;20032;-67
2022/10/14 00:48:06;;;;;;;11.07;4.45;;;;;;;;;;5060257;28;20422;-67
2022/10/14 00:50:33;;;;;;;10.73;4.57;;;;;;;;;;5058703;28;20474;-66
2022/10/14 00:53:00;;;;;;;13.40;4.78;;;;;;;;;;5056049;28;20016;-66
2022/10/14 00:55:27;;;;;;;10.27;4.43;;;;;;;;;;5066333;28;20035;-66
2022/10/14 00:57:53;;;;;;;11.50;4.50;;;;;;;;;;5063765;28;20907;-68
2022/10/14 01:00:20;;;;;;;12.57;4.53;;;;;;;;;;5057793;28;20020;-67
2022/10/14 01:02:46;;;;;;;11.07;4.55;;;;;;;;;;5059075;28;20024;-67
2022/10/14 01:05:14;;;;;;;12.20;4.88;;;;;;;;;;5059697;28;20033;-66
2022/10/14 01:07:45;;;;;;;11.32;4.57;;;;;;;;;;5055018;28;20486;-66
2022/10/14 01:10:27;;;;;;;16.08;4.70;;;;;;;;;;5062741;28;20490;-66
2022/10/14 01:12:59;;;;;;;11.13;4.85;;;;;;;;;;5062399;28;20032;-67
2022/10/14 01:15:31;;;;;;;11.32;5.28;;;;;;;;;;5056552;28;20063;-68
2022/10/14 01:18:04;;;;;;;9.73;4.72;;;;;;;;;;5063666;28;20036;-66
2022/10/14 01:20:36;;;;;;;10.27;4.97;;;;;;;;;;5055202;28;20029;-67
2022/10/14 01:23:26;;;;;;;12.57;5.00;;;;;;;;;;5061034;28;20512;-66
2022/10/14 01:25:58;;;;;;;10.88;4.57;;;;;;;;;;5061622;28;20032;-66
2022/10/14 01:28:24;;;;;;;11.70;5.10;;;;;;;;;;5065697;28;20020;-68
2022/10/14 01:30:55;;;;;;;14.63;5.53;;;;;;;;;;5057878;28;20028;-68
2022/10/14 01:33:26;;;;;;;12.27;4.90;;;;;;;;;;5062358;28;20544;-67
2022/10/14 01:36:09;;;;;;;11.05;4.68;;;;;;;;;;5058844;28;20031;-66
2022/10/14 01:38:55;;;;;;;11.77;4.22;;;;;;;;;;5057647;28;20166;-66
2022/10/14 01:41:24;;;;;;;10.90;4.00;;;;;;;;;;5057902;28;20538;-66
2022/10/14 01:43:51;;;;;;;10.18;4.22;;;;;;;;;;5052371;28;20032;-67
2022/10/14 01:46:19;;;;;;;10.43;4.38;;;;;;;;;;5059215;28;20036;-68
2022/10/14 01:48:47;;;;;;;11.40;4.78;;;;;;;;;;5056750;28;20493;-67
2022/10/14 01:51:20;;;;;;;12.93;4.72;;;;;;;;;;5059553;28;20032;-67
2022/10/14 01:53:50;;;;;;;11.38;4.70;;;;;;;;;;5060223;28;20254;-66
2022/10/14 01:56:17;;;;;;;12.68;4.57;;;;;;;;;;5059498;28;20109;-67
2022/10/14 01:58:43;;;;;;;11.50;4.32;;;;;;;;;;5056316;28;20048;-68
2022/10/14 02:01:09;;;;;;;14.55;4.90;;;;;;;;;;5058376;28;20452;-66
2022/10/14 02:03:43;;;;;;;11.38;4.60;;;;;;;;;;5053578;28;20119;-66
2022/10/14 02:06:29;;;;;;;13.98;4.50;;;;;;;;;;5060380;28;20036;-68
2022/10/14 02:08:58;;;;;;;12.10;4.30;;;;;;;;;;5065098;28;20043;-66
2022/10/14 02:11:25;;;;;;;14.77;4.45;;;;;;;;;;5061701;28;20106;-66
2022/10/14 02:13:58;;;;;;;10.40;4.03;;;;;;;;;;5061559;28;20036;-68
2022/10/14 02:16:24;;;;;;;10.00;4.07;;;;;;;;;;5066249;28;20101;-68
2022/10/14 02:18:50;;;;;;;;;;;;;;;;;;5059226;28;20073;-67
2022/10/14 02:21:24;;;;;;;12.25;4.07;;;;;;;;;;5063855;28;20460;-66
2022/10/14 02:23:55;;;;;;;12.85;3.95;;;;;;;;;;5058279;28;20036;-67
2022/10/14 02:26:22;;;;;;;10.80;4.07;;;;;;;;;;5063561;28;20358;-67
2022/10/14 02:28:49;;;;;;;11.90;3.80;;;;;;;;;;5057457;28;20070;-67
2022/10/14 02:31:16;;;;;;;11.13;4.05;;;;;;;;;;5063695;28;20024;-67
2022/10/14 02:33:43;;;;;;;10.63;3.45;;;;;;;;;;5060845;28;20785;-66
2022/10/14 02:36:11;;;;;;;10.18;3.67;;;;;;;;;;5064109;28;20123;-67
2022/10/14 02:38:38;;;;;;;11.45;3.65;;;;;;;;;;5059797;28;20284;-67
2022/10/14 02:41:05;;;;;;;11.57;3.85;;;;;;;;;;5060088;28;20059;-66
2022/10/14 02:43:31;;;;;;;10.43;3.50;;;;;;;;;;5054886;28;20310;-66
2022/10/14 02:45:57;;;;;;;;;;;;;;;;;;5068512;28;20034;-66
2022/10/14 02:48:23;;;;;;;11.13;3.92;;;;;;;;;;5062612;28;19912;-65
2022/10/14 02:50:49;;;;;;;;;;;;;;;;;;5057456;28;20040;-68
2022/10/14 02:53:16;;;;;;;10.15;3.78;;;;;;;;;;5060367;28;19965;-66
2022/10/14 02:55:42;;;;;;;12.63;4.03;;;;;;;;;;5059850;28;20012;-67
2022/10/14 02:58:08;;;;;;;10.32;3.60;;;;;;;;;;5069275;28;20485;-66
2022/10/14 03:00:34;;;;;;;12.27;3.60;;;;;;;;;;5059667;28;20071;-66
2022/10/14 03:03:00;;;;;;;10.35;3.55;;;;;;;;;;5063928;28;20127;-67
2022/10/14 03:05:26;;;;;;;;;;;;;;;;;;5069483;28;20032;-68
2022/10/14 03:07:52;;;;;;;8.70;3.20;;;;;;;;;;5064634;28;20255;-67
2022/10/14 03:10:18;;;;;;;;;;;;;;;;;;5067142;28;20076;-68
2022/10/14 03:12:45;;;;;;;12.90;4.05;;;;;;;;;;5062211;28;20456;-66
2022/10/14 03:15:11;;;;;;;9.52;3.10;;;;;;;;;;5060816;28;20479;-66
2022/10/14 03:17:38;;;;;;;10.82;3.33;;;;;;;;;;5057527;28;20021;-66
2022/10/14 03:20:05;;;;;;;8.57;3.00;;;;;;;;;;5055146;28;20032;-66
2022/10/14 03:22:31;;;;;;;10.23;3.60;;;;;;;;;;5057856;28;20092;-66
2022/10/14 03:24:57;;;;;;;9.85;3.38;;;;;;;;;;5067132;28;20040;-68
2022/10/14 03:27:24;;;;;;;;;;;;;;;;;;5064926;28;20103;-67
2022/10/14 03:29:50;;;;;;;10.00;3.03;;;;;;;;;;5059021;28;20662;-66
2022/10/14 03:32:16;;;;;;;9.45;3.35;;;;;;;;;;5061621;28;20479;-66
2022/10/14 03:34:42;;;;;;;9.70;3.67;;;;;;;;;;5059887;28;20086;-66
2022/10/14 03:37:08;;;;;;;;;;;;;;;;;;5057927;28;20031;-66
2022/10/14 03:39:34;;;;;;;9.10;3.35;;;;;;;;;;5059859;28;19989;-66
2022/10/14 03:42:00;;;;;;;12.60;6.72;;;;;;;;;;5065103;28;20104;-67
2022/10/14 03:44:26;;;;;;;20.52;13.05;;;;;;;;;;5063697;28;20077;-67
2022/10/14 03:46:52;;;;;;;;;;;;;;;;;;5057473;28;20028;-66
2022/10/14 03:49:18;;;;;;;15.23;8.18;;;;;;;;;;5057152;28;20440;-66
2022/10/14 03:51:44;;;;;;;11.65;5.88;;;;;;;;;;5057705;28;20038;-67
2022/10/14 03:54:10;;;;;;;11.48;4.55;;;;;;;;;;5061083;28;20497;-66
2022/10/14 03:56:36;;;;;;;9.88;3.88;;;;;;;;;;5054866;28;22034;-66
2022/10/14 03:59:03;;;;;;;11.02;3.80;;;;;;;;;;5065673;28;20110;-66
2022/10/14 04:01:29;;;;;;;11.93;3.70;;;;;;;;;;5058869;28;20552;-66
2022/10/14 04:03:55;;;;;;;10.00;3.40;;;;;;;;;;5063019;28;20117;-67
2022/10/14 04:06:21;;;;;;;10.57;3.38;;;;;;;;;;5064568;28;20124;-66
2022/10/14 04:08:47;;;;;;;10.18;3.50;;;;;;;;;;5061229;28;20571;-69
2022/10/14 04:11:14;;;;;;;11.95;3.20;;;;;;;;;;5063041;28;20028;-66
2022/10/14 04:13:39;;;;;;;;;;;;;;;;;;5060238;28;20150;-66
2022/10/14 04:16:07;;;;;;;11.65;3.67;;;;;;;;;;5057380;28;19930;-66
2022/10/14 04:18:33;;;;;;;12.35;4.53;;;;;;;;;;5057753;28;20520;-66
2022/10/14 04:21:04;;;;;;;9.63;3.97;;;;;;;;;;5059335;28;20024;-68
2022/10/14 04:23:30;;;;;;;14.07;4.05;;;;;;;;;;5058774;28;20485;-68
2022/10/14 04:25:56;;;;;;;;;;;;;;;;;;5064486;28;20028;-66
2022/10/14 04:28:22;;;;;;;12.18;4.30;;;;;;;;;;5066098;28;19912;-68
2022/10/14 04:30:48;;;;;;;9.35;3.88;;;;;;;;;;5060310;28;20028;-68
2022/10/14 04:33:14;;;;;;;;;;;;;;;;;;5056202;28;20075;-66
2022/10/14 04:35:40;;;;;;;9.48;3.85;;;;;;;;;;5055282;28;20034;-68
2022/10/14 04:38:07;;;;;;;10.50;3.97;;;;;;;;;;5062550;28;20042;-66
2022/10/14 04:40:33;;;;;;;10.93;4.00;;;;;;;;;;5059558;28;20029;-66
2022/10/14 04:42:59;;;;;;;11.52;4.30;;;;;;;;;;5061937;28;20856;-66
2022/10/14 04:45:25;;;;;;;12.80;4.28;;;;;;;;;;5064603;28;20024;-69
2022/10/14 04:47:51;;;;;;;16.58;4.45;;;;;;;;;;5056895;28;20398;-67
2022/10/14 04:50:18;;;;;;;12.90;3.97;;;;;;;;;;5058275;28;20474;-66
2022/10/14 04:52:44;;;;;;;13.15;4.65;;;;;;;;;;5055450;28;20457;-66
2022/10/14 04:55:11;;;;;;;10.60;4.68;;;;;;;;;;5066795;28;20043;-68
2022/10/14 04:57:39;;;;;;;14.43;4.57;;;;;;;;;;5061449;28;20111;-66
2022/10/14 05:00:05;;;;;;;14.23;4.75;;;;;;;;;;5061557;28;20046;-68
2022/10/14 05:02:31;;;;;;;12.20;4.13;;;;;;;;;;5057582;28;20028;-68
2022/10/14 05:04:58;;;;;;;12.40;4.97;;;;;;;;;;5059174;28;20117;-66
2022/10/14 05:07:24;;;;;;;13.23;4.57;;;;;;;;;;5059626;28;20056;-66
2022/10/14 05:09:50;;;;;;;10.05;4.03;;;;;;;;;;5055291;28;20032;-66
2022/10/14 05:12:16;;;;;;;11.30;4.00;;;;;;;;;;5061417;28;20020;-68
2022/10/14 05:14:43;;;;;;;12.90;3.90;;;;;;;;;;5059800;28;20069;-67
2022/10/14 05:17:09;;;;;;;11.35;4.15;;;;;;;;;;5055120;28;20032;-67
2022/10/14 05:19:35;;;;;;;12.38;4.57;;;;;;;;;;5057965;28;20754;-66
2022/10/14 05:22:01;;;;;;;9.40;3.80;;;;;;;;;;5056968;28;20124;-66
2022/10/14 05:24:27;;;;;;;11.90;4.20;;;;;;;;;;5057907;28;20036;-66
2022/10/14 05:26:59;;;;;;;10.82;4.05;;;;;;;;;;5062063;28;20089;-67
2022/10/14 05:29:25;;;;;;;11.30;4.05;;;;;;;;;;5056822;28;20020;-66
2022/10/14 05:31:51;;;;;;;10.85;3.78;;;;;;;;;;5062861;28;20394;-66
2022/10/14 05:34:17;;;;;;;;;;;;;;;;;;5060476;28;20056;-66
2022/10/14 05:36:43;;;;;;;11.48;4.20;;;;;;;;;;5055454;28;19913;-66
2022/10/14 05:39:10;;;;;;;12.25;4.63;;;;;;;;;;5059521;28;20630;-66
2022/10/14 05:41:36;;;;;;;14.20;4.75;;;;;;;;;;5054941;28;20020;-66
2022/10/14 05:44:03;;;;;;;13.30;5.20;;;;;;;;;;5057986;28;20141;-67
2022/10/14 05:46:29;;;;;;;12.25;5.68;;;;;;;;;;5053847;28;20169;-66
2022/10/14 05:48:56;;;;;;;13.85;5.70;;;;;;;;;;5060530;28;20146;-67
2022/10/14 05:51:22;;;;;;;14.02;5.75;;;;;;;;;;5060098;28;20369;-67
2022/10/14 05:53:48;;;;;;;;;;;;;;;;;;5057581;28;20037;-67
2022/10/14 05:56:14;;;;;;;14.07;5.90;;;;;;;;;;5062375;28;20234;-68
2022/10/14 05:58:41;;;;;;;12.50;5.68;;;;;;;;;;5053426;28;20445;-68
2022/10/14 06:01:09;;;;;;;13.05;6.07;;;;;;;;;;5062122;28;20032;-68
2022/10/14 06:03:35;;;;;;;13.18;5.70;;;;;;;;;;5054805;28;20592;-67
2022/10/14 06:06:01;;;;;;;12.77;5.60;;;;;;;;;;5063057;28;20034;-67
2022/10/14 06:08:27;;;;;;;12.82;6.00;;;;;;;;;;5064773;28;20023;-67
2022/10/14 06:10:53;;;;;;;15.05;6.28;;;;;;;;;;5059267;28;20036;-67
2022/10/14 06:13:20;;;;;;;13.63;7.10;;;;;;;;;;5062675;28;20471;-67
2022/10/14 06:15:46;;;;;;;16.75;7.20;;;;;;;;;;5055891;28;20034;-67
2022/10/14 06:18:12;;;;;;;13.52;6.45;;;;;;;;;;5054453;28;20517;-67
2022/10/14 06:20:38;;;;;;;17.50;6.65;;;;;;;;;;5056633;28;20032;-66
2022/10/14 06:23:05;;;;;;;13.75;6.75;;;;;;;;;;5055379;28;20035;-66
2022/10/14 06:25:31;;;;;;;14.23;6.30;;;;;;;;;;5051138;28;20474;-68
2022/10/14 06:28:04;;;;;;;12.98;6.40;;;;;;;;;;5061120;28;20200;-67
2022/10/14 06:30:31;;;;;;;14.93;6.32;;;;;;;;;;5057772;28;20063;-66
2022/10/14 06:32:57;;;;;;;27.20;20.00;;;;;;;;;;5061489;28;20505;-68
2022/10/14 06:35:23;;;;;;;53.90;42.47;;;;;;;;;;5059455;28;20071;-66
2022/10/14 06:37:49;;;;;;;83.10;53.42;;;;;;;;;;5057561;28;20722;-66
2022/10/14 06:40:15;;;;;;;80.95;47.15;;;;;;;;;;5062836;28;20051;-67
2022/10/14 06:42:41;;;;;;;;;;;;;;;;;;5056665;28;20483;-66
2022/10/14 06:45:07;;;;;;;58.22;33.50;;;;;;;;;;5063298;28;20680;-68
2022/10/14 06:47:33;;;;;;;;;;;;;;;;;;5056408;28;20028;-68
2022/10/14 06:49:59;;;;;;;39.88;20.05;;;;;;;;;;5064738;28;19981;-67
2022/10/14 06:52:25;;;;;;;;;;;;;;;;;;5060444;28;20074;-67
2022/10/14 06:54:51;;;;;;;26.08;13.07;;;;;;;;;;5061230;28;20416;-67
2022/10/14 06:57:17;;;;;;;27.10;13.80;;;;;;;;;;5060555;28;20106;-67
2022/10/14 06:59:44;;;;;;;;;;;;;;;;;;5061108;28;20470;-67
2022/10/14 07:02:10;;;;;;;18.10;9.00;;;;;;;;;;5064959;28;19913;-66
2022/10/14 07:04:36;;;;;;;20.38;8.10;;;;;;;;;;5066915;28;20028;-68
2022/10/14 07:07:02;;;;;;;18.75;7.90;;;;;;;;;;5066363;28;20051;-66
2022/10/14 07:09:29;;;;;;;16.33;7.88;;;;;;;;;;5068738;28;20037;-66
2022/10/14 07:11:55;;;;;;;;;;;;;;;;;;5069896;28;20043;-66
2022/10/14 07:14:21;;;;;;;13.75;6.20;;;;;;;;;;5071414;28;19923;-68
2022/10/14 07:16:47;;;;;;;;;;;;;;;;;;5061139;28;21534;-68
2022/10/14 07:19:13;;;;;;;16.58;5.70;;;;;;;;;;5066530;28;19912;-67
2022/10/14 07:21:40;;;;;;;;;;;;;;;;;;5068121;28;20020;-67
2022/10/14 07:24:06;;;;;;;17.38;6.85;;;;;;;;;;5066012;28;19916;-67
2022/10/14 07:26:32;;;;;;;;;;;;;;;;;;5062707;28;20421;-66
2022/10/14 07:28:58;;;;;;;18.35;6.28;;;;;;;;;;5067100;28;19916;-67
2022/10/14 07:31:25;;;;;;;;;;;;;;;;;;5067820;28;20101;-66
2022/10/14 07:33:51;;;;;;;14.85;6.13;;;;;;;;;;5062743;28;19970;-66
2022/10/14 07:36:17;;;;;;;;;;;;;;;;;;5071224;28;20043;-66
2022/10/14 07:38:43;;;;;;;15.93;6.68;;;;;;;;;;5062957;28;19915;-66
2022/10/14 07:41:15;;;;;;;18.95;6.63;;;;;;;;;;5066503;28;20474;-68
2022/10/14 07:43:42;;;;;;;14.55;6.22;;;;;;;;;;5068266;28;20413;-67
2022/10/14 07:46:09;;;;;;;14.40;5.68;;;;;;;;;;5065859;28;20032;-68
2022/10/14 07:48:35;;;;;;;12.35;4.75;;;;;;;;;;5064780;28;20024;-66
2022/10/14 07:51:01;;;;;;;10.45;4.25;;;;;;;;;;5070397;28;20032;-66
2022/10/14 07:53:27;;;;;;;14.00;4.20;;;;;;;;;;5064029;28;20561;-66
2022/10/14 07:55:53;;;;;;;;;;;;;;;;;;5070396;28;20362;-67
2022/10/14 07:58:25;;;;;;;12.02;4.15;;;;;;;;;;5070532;28;19920;-67
2022/10/14 08:00:51;;;;;;;11.48;3.90;;;;;;;;;;5063084;28;20353;-67
2022/10/14 08:03:18;;;;;;;12.95;4.07;;;;;;;;;;5069491;28;20077;-67
2022/10/14 08:05:44;;;;;;;12.95;3.88;;;;;;;;;;5063334;28;20805;-67
2022/10/14 08:08:11;;;;;;;8.60;3.35;;;;;;;;;;5068964;28;20141;-67
2022/10/14 08:10:37;;;;;;;12.77;4.45;;;;;;;;;;5066916;28;20499;-68
2022/10/14 08:13:04;;;;;;;15.18;4.05;;;;;;;;;;5066924;28;20717;-68
2022/10/14 08:15:39;;;;;;;13.32;4.70;;;;;;;;;;5061125;28;20135;-68
2022/10/14 08:18:05;;;;;;;12.38;3.92;;;;;;;;;;5066373;28;20098;-68
2022/10/14 08:20:32;;;;;;;15.13;4.53;;;;;;;;;;5065071;27;20309;-67
2022/10/14 08:22:58;;;;;;;14.30;4.60;;;;;;;;;;5071337;28;20497;-67
2022/10/14 08:25:24;;;;;;;9.68;4.30;;;;;;;;;;5067790;28;20032;-67
2022/10/14 08:27:52;;;;;;;12.80;4.97;;;;;;;;;;5065294;28;20474;-68
2022/10/14 08:30:19;;;;;;;15.57;4.82;;;;;;;;;;5066736;28;20024;-68
2022/10/14 08:32:45;;;;;;;13.77;4.45;;;;;;;;;;5062729;28;20036;-68
2022/10/14 08:35:11;;;;;;;11.32;4.57;;;;;;;;;;5061117;28;20048;-68
2022/10/14 08:37:38;;;;;;;11.63;4.57;;;;;;;;;;5067891;28;20469;-68
2022/10/14 08:40:05;;;;;;;10.25;4.43;;;;;;;;;;5059412;28;20425;-67
2022/10/14 08:42:37;;;;;;;12.48;4.22;;;;;;;;;;5060360;28;20020;-68
2022/10/14 08:45:08;;;;;;;11.43;4.00;;;;;;;;;;5068176;28;20036;-67
2022/10/14 08:47:39;;;;;;;12.10;4.03;;;;;;;;;;5064750;28;20045;-67
2022/10/14 08:50:23;;;;;;;10.55;3.65;;;;;;;;;;5068339;28;20032;-67
2022/10/14 08:52:55;;;;;;;11.27;3.67;;;;;;;;;;5064100;28;20028;-68
2022/10/14 08:55:32;;;;;;;10.60;4.00;;;;;;;;;;5066012;28;20047;-67
2022/10/14 08:58:15;;;;;;;11.65;3.35;;;;;;;;;;5068938;28;20032;-67
2022/10/14 09:00:42;;;;;;;9.70;3.50;;;;;;;;;;5060391;28;20139;-66
2022/10/14 09:03:22;;;;;;;10.13;4.05;;;;;;;;;;5066041;28;20157;-67
2022/10/14 09:06:09;;;;;;;10.25;3.47;;;;;;;;;;5064319;28;20501;-68
2022/10/14 09:08:47;;;;;;;9.63;3.42;;;;;;;;;;5066828;28;20074;-67
2022/10/14 09:11:14;;;;;;;12.82;3.50;;;;;;;;;;5066788;28;20031;-67
2022/10/14 09:13:42;;;;;;;10.35;3.30;;;;;;;;;;5066125;28;20256;-69
2022/10/14 09:16:28;;;;;;;12.38;3.38;;;;;;;;;;5065094;28;20032;-67
2022/10/14 09:18:56;;;;;;;10.65;3.20;;;;;;;;;;5065061;28;20032;-67
2022/10/14 09:21:22;;;;;;;10.85;3.42;;;;;;;;;;5069677;28;20141;-66
2022/10/14 09:23:55;;;;;;;11.43;3.53;;;;;;;;;;5064066;28;20191;-67
2022/10/14 09:26:21;;;;;;;13.00;3.20;;;;;;;;;;5059627;28;20419;-67
2022/10/14 09:28:52;;;;;;;10.55;3.67;;;;;;;;;;5063215;28;23264;-67
2022/10/14 09:31:19;;;;;;;11.98;3.60;;;;;;;;;;5066948;28;20032;-68
2022/10/14 09:33:45;;;;;;;8.43;3.35;;;;;;;;;;5058124;28;20416;-66
2022/10/14 09:36:19;;;;;;;9.38;3.00;;;;;;;;;;5066853;28;20040;-67
2022/10/14 09:38:51;;;;;;;9.82;3.38;;;;;;;;;;5061906;28;20031;-67
2022/10/14 09:41:18;;;;;;;8.70;3.25;;;;;;;;;;5065088;28;20046;-68
2022/10/14 09:44:02;;;;;;;14.27;3.28;;;;;;;;;;5063422;28;20032;-68
2022/10/14 09:46:28;;;;;;;12.18;3.85;;;;;;;;;;5061173;28;20390;-68
2022/10/14 09:48:55;;;;;;;10.18;3.15;;;;;;;;;;5058536;28;20047;-68
2022/10/14 09:51:23;;;;;;;9.88;3.25;;;;;;;;;;5066379;28;20086;-68
2022/10/14 09:54:01;;;;;;;13.77;3.45;;;;;;;;;;5060702;28;20402;-68
2022/10/14 09:56:28;;;;;;;10.63;3.75;;;;;;;;;;5064552;28;20132;-68
2022/10/14 09:58:56;;;;;;;11.73;3.42;;;;;;;;;;5065872;28;20139;-68
2022/10/14 10:01:27;;;;;;;12.70;4.20;;;;;;;;;;5066481;28;20015;-67
2022/10/14 10:03:54;;;;;;;12.30;3.35;;;;;;;;;;5063937;28;20073;-67
2022/10/14 10:06:22;;;;;;;9.50;3.80;;;;;;;;;;5066260;28;20150;-67
2022/10/14 10:08:54;;;;;;;9.48;3.08;;;;;;;;;;5062920;28;20037;-67
2022/10/14 10:11:37;;;;;;;10.38;2.80;;;;;;;;;;5070461;28;20020;-67
2022/10/14 10:14:21;;;;;;;7.75;2.78;;;;;;;;;;5063493;28;20028;-67
2022/10/14 10:16:48;;;;;;;10.65;3.00;;;;;;;;;;5061405;28;20083;-68
2022/10/14 10:19:47;;;;;;;9.82;2.70;;;;;;;;;;5063813;28;20032;-68
2022/10/14 10:22:19;;;;;;;10.60;3.20;;;;;;;;;;5001245;28;20045;-68
2022/10/14 10:24:49;;;;;;;10.00;2.65;;;;;;;;;;5000737;28;20049;-69
2022/10/14 10:27:21;;;;;;;11.75;3.17;;;;;;;;;;5003729;28;20029;-67
2022/10/14 10:29:47;;;;;;;11.05;3.13;;;;;;;;;;5000339;28;20053;-68
2022/10/14 10:32:32;;;;;;;7.43;2.70;;;;;;;;;;5005619;28;20343;-67
2022/10/14 10:35:00;;;;;;;8.68;2.65;;;;;;;;;;5004880;28;20529;-67
2022/10/14 10:37:39;;;;;;;11.20;3.15;;;;;;;;;;4990820;28;20636;-67
2022/10/14 10:40:23;;;;;;;10.07;3.25;;;;;;;;;;4986703;28;20437;-68
2022/10/14 10:42:55;;;;;;;10.40;2.78;;;;;;;;;;5003463;28;20112;-68
2022/10/14 10:45:32;;;;;;;9.27;2.80;;;;;;;;;;4989409;28;20629;-69
2022/10/14 10:48:01;;;;;;;9.65;2.95;;;;;;;;;;4989822;28;20406;-69
2022/10/14 10:50:33;;;;;;;11.32;3.28;;;;;;;;;;4988106;28;20034;-67
2022/10/14 10:53:02;;;;;;;11.18;3.22;;;;;;;;;;5005237;28;20025;-68
2022/10/14 10:55:39;;;;;;;10.15;3.13;;;;;;;;;;5002806;28;20033;-67
2022/10/14 10:58:15;;;;;;;8.43;2.53;;;;;;;;;;5044643;28;20069;-67
2022/10/14 11:00:53;;;;;;;8.27;2.50;;;;;;;;;;5066359;28;20616;-68
2022/10/14 11:03:35;;;;;;;12.45;2.63;;;;;;;;;;5068161;28;20241;-70
2022/10/14 11:06:09;;;;;;;9.65;2.58;;;;;;;;;;5069827;28;20367;-68
2022/10/14 11:14:19;;;;;;;11.90;2.83;;;;;;;;;;5065799;28;20465;-68
2022/10/14 11:17:00;;;;;;;9.68;3.00;;;;;;;;;;5064600;28;20275;-67
2022/10/14 11:19:44;;;;;;;9.45;3.00;;;;;;;;;;5064770;28;20093;-68
2022/10/14 11:22:29;;;;;;;9.80;2.83;;;;;;;;;;5067248;28;20032;-68
2022/10/14 11:24:57;;;;;;;11.38;3.05;;;;;;;;;;5068482;28;20830;-68
2022/10/14 11:27:23;;;;;;;10.25;2.92;;;;;;;;;;5069236;28;20031;-68
2022/10/14 11:30:08;;;;;;;8.85;2.45;;;;;;;;;;5066417;28;20032;-67
2022/10/14 11:32:34;;;;;;;8.75;2.78;;;;;;;;;;5059122;28;20735;-68
2022/10/14 11:35:00;;;;;;;10.32;2.63;;;;;;;;;;5065869;28;20047;-68
2022/10/14 11:37:29;;;;;;;10.45;2.50;;;;;;;;;;5068935;28;20827;-68
2022/10/14 11:39:55;;;;;;;9.98;2.78;;;;;;;;;;5067791;28;20386;-67
2022/10/14 11:42:45;;;;;;;9.50;2.85;;;;;;;;;;5066064;28;20047;-69
2022/10/14 11:45:18;;;;;;;10.15;2.70;;;;;;;;;;5054934;28;20036;-67
2022/10/14 11:47:46;;;;;;;10.55;2.50;;;;;;;;;;5061266;28;20085;-67
2022/10/14 11:50:39;;;;;;;12.10;3.10;;;;;;;;;;5068959;28;20043;-69
2022/10/14 11:53:17;;;;;;;8.48;2.67;;;;;;;;;;5066504;28;20619;-69
2022/10/14 11:55:47;;;;;;;9.10;2.38;;;;;;;;;;5062391;28;20334;-69
2022/10/14 11:58:15;;;;;;;12.38;2.88;;;;;;;;;;5065908;28;20070;-69
2022/10/14 12:00:43;;;;;;;8.55;2.40;;;;;;;;;;5064873;28;20706;-69
2022/10/14 12:03:42;;;;;;;7.10;2.50;;;;;;;;;;5063512;28;20122;-69
2022/10/14 12:06:13;;;;;;;10.50;2.72;;;;;;;;;;5014998;28;20043;-68
2022/10/14 12:08:45;;;;;;;8.90;2.45;;;;;;;;;;5009146;28;20045;-68
2022/10/14 12:11:30;;;;;;;8.13;2.25;;;;;;;;;;5017444;28;20722;-68
2022/10/14 12:14:11;;;;;;;8.65;2.70;;;;;;;;;;5018097;28;20037;-69
2022/10/14 12:16:40;;;;;;;8.70;2.65;;;;;;;;;;5010009;28;20750;-68
2022/10/14 12:19:08;;;;;;;10.63;2.78;;;;;;;;;;5004359;28;20450;-68
2022/10/14 12:21:34;;;;;;;7.95;2.50;;;;;;;;;;5011641;28;20487;-67
2022/10/14 12:24:08;;;;;;;11.25;2.50;;;;;;;;;;5013173;28;20041;-68
2022/10/14 12:26:51;;;;;;;10.50;2.47;;;;;;;;;;5012044;28;20033;-68
2022/10/14 12:29:22;;;;;;;13.02;2.80;;;;;;;;;;5017180;28;20478;-67
2022/10/14 12:31:49;;;;;;;11.77;2.65;;;;;;;;;;5012804;28;21082;-68
2022/10/14 12:34:17;;;;;;;8.38;2.60;;;;;;;;;;5016400;28;20089;-66
2022/10/14 12:36:45;;;;;;;9.73;2.65;;;;;;;;;;5011825;28;20074;-68
2022/10/14 12:39:17;;;;;;;11.05;3.20;;;;;;;;;;5018645;28;20458;-68
2022/10/14 12:41:54;;;;;;;13.13;3.10;;;;;;;;;;5022345;28;20124;-68
2022/10/14 12:44:22;;;;;;;11.77;2.70;;;;;;;;;;5068245;28;20035;-69
2022/10/14 12:46:50;;;;;;;10.07;2.70;;;;;;;;;;5060102;28;20134;-68
2022/10/14 12:49:27;;;;;;;11.05;2.88;;;;;;;;;;5066215;28;20031;-67
2022/10/14 12:51:57;;;;;;;10.57;2.63;;;;;;;;;;5060812;28;20504;-67
2022/10/14 12:54:24;;;;;;;12.15;2.60;;;;;;;;;;5062211;28;20036;-67
2022/10/14 12:56:57;;;;;;;10.45;2.85;;;;;;;;;;5063266;28;20470;-70
2022/10/14 12:59:29;;;;;;;9.30;2.70;;;;;;;;;;5065135;28;20065;-68
2022/10/14 13:01:56;;;;;;;8.75;2.83;;;;;;;;;;5061319;28;20055;-68
2022/10/14 13:04:23;;;;;;;9.18;2.85;;;;;;;;;;5062187;28;20024;-67
2022/10/14 13:07:08;;;;;;;8.27;2.55;;;;;;;;;;5061200;28;20040;-67
2022/10/14 13:09:35;;;;;;;8.75;2.47;;;;;;;;;;5059130;28;20028;-66
2022/10/14 13:12:04;;;;;;;10.07;2.60;;;;;;;;;;5062212;28;20032;-66
2022/10/14 13:14:31;;;;;;;10.27;2.70;;;;;;;;;;5061522;28;20036;-66
2022/10/14 13:17:23;;;;;;;10.93;2.72;;;;;;;;;;5063212;28;20096;-66
2022/10/14 13:19:49;;;;;;;9.70;2.75;;;;;;;;;;5058756;28;20488;-67
2022/10/14 13:22:28;;;;;;;9.45;2.88;;;;;;;;;;5058117;28;20067;-67
2022/10/14 13:25:08;;;;;;;11.55;3.03;;;;;;;;;;5061526;28;20360;-66
2022/10/14 13:27:38;;;;;;;9.85;2.92;;;;;;;;;;5062317;28;20028;-67
2022/10/14 13:30:11;;;;;;;11.88;2.67;;;;;;;;;;5064428;28;20213;-67
2022/10/14 13:32:44;;;;;;;11.38;2.80;;;;;;;;;;5063487;28;20048;-69
2022/10/14 13:35:13;;;;;;;12.50;3.08;;;;;;;;;;5071050;28;20445;-68
2022/10/14 13:37:41;;;;;;;10.25;2.83;;;;;;;;;;5066489;28;20460;-68
2022/10/14 13:40:19;;;;;;;9.80;2.30;;;;;;;;;;5068796;28;20024;-68
2022/10/14 13:42:51;;;;;;;10.13;2.55;;;;;;;;;;5062806;28;21046;-69
2022/10/14 13:45:19;;;;;;;9.68;2.53;;;;;;;;;;5070366;28;20118;-67
2022/10/14 13:47:49;;;;;;;9.48;2.70;;;;;;;;;;5063742;28;20202;-68
2022/10/14 13:50:17;;;;;;;9.07;2.65;;;;;;;;;;5073735;28;20417;-69
2022/10/14 13:53:02;;;;;;;8.90;2.58;;;;;;;;;;5066458;28;20454;-68
2022/10/14 13:55:29;;;;;;;10.00;2.75;;;;;;;;;;5063781;28;20024;-68
2022/10/14 13:58:12;;;;;;;9.98;2.90;;;;;;;;;;5064000;28;20507;-68
2022/10/14 14:00:50;;;;;;;10.57;2.63;;;;;;;;;;5062151;28;20135;-69
2022/10/14 14:03:16;;;;;;;10.32;2.80;;;;;;;;;;5065858;28;20579;-67
2022/10/14 14:05:42;;;;;;;8.85;2.88;;;;;;;;;;5060687;28;20050;-69
2022/10/14 14:08:23;;;;;;;8.73;2.60;;;;;;;;;;5067618;28;20059;-67
2022/10/14 14:10:54;;;;;;;9.60;2.95;;;;;;;;;;5063655;28;20921;-67
2022/10/14 14:13:20;;;;;;;13.15;3.00;;;;;;;;;;5072302;28;20099;-68
2022/10/14 14:15:50;;;;;;;8.65;2.55;;;;;;;;;;5065849;28;20375;-68
2022/10/14 14:18:29;;;;;;;9.65;2.40;;;;;;;;;;5072817;28;20053;-68
2022/10/14 14:20:58;;;;;;;8.77;2.70;;;;;;;;;;5068014;28;20052;-67
2022/10/14 14:23:28;;;;;;;8.05;2.30;;;;;;;;;;5072146;28;20524;-68
2022/10/14 14:25:54;;;;;;;11.32;2.72;;;;;;;;;;5069389;28;20054;-68
2022/10/14 14:28:21;;;;;;;8.43;2.42;;;;;;;;;;5068356;28;20263;-68
2022/10/14 14:30:49;;;;;;;9.80;2.88;;;;;;;;;;5059963;28;20028;-68
2022/10/14 14:33:17;;;;;;;11.48;3.13;;;;;;;;;;5066025;28;20046;-67
2022/10/14 14:35:51;;;;;;;9.90;2.80;;;;;;;;;;5062594;28;20033;-68
2022/10/14 14:38:34;;;;;;;10.90;2.72;;;;;;;;;;5063946;28;20336;-67
2022/10/14 14:41:16;;;;;;;9.73;2.78;;;;;;;;;;5064663;28;20255;-67
2022/10/14 14:43:43;;;;;;;9.88;2.50;;;;;;;;;;5059691;28;20501;-67
2022/10/14 14:46:10;;;;;;;12.32;2.92;;;;;;;;;;5065812;28;20093;-68
2022/10/14 14:48:39;;;;;;;11.35;2.90;;;;;;;;;;5061677;28;20055;-66
2022/10/14 14:51:09;;;;;;;8.68;2.47;;;;;;;;;;5066738;28;20063;-69
2022/10/14 14:53:36;;;;;;;8.65;2.70;;;;;;;;;;5061236;28;20085;-69
2022/10/14 14:56:05;;;;;;;10.15;2.60;;;;;;;;;;5063376;28;20401;-68
2022/10/14 14:58:31;;;;;;;10.40;2.95;;;;;;;;;;5062473;28;20059;-68
2022/10/14 15:00:57;;;;;;;7.32;2.63;;;;;;;;;;5063255;28;20426;-68